createdAt,value
2017-08-29T00:00:24.958Z,0
2017-08-29T00:01:25.008Z,0
2017-08-29T00:02:19.991Z,0
2017-08-29T00:03:15.074Z,0
2017-08-29T00:04:14.974Z,0
2017-08-29T00:05:10.188Z,0
2017-08-29T00:06:05.208Z,0
2017-08-29T00:07:06.136Z,0
2017-08-29T00:08:06.173Z,0
2017-08-29T00:09:06.347Z,0
2017-08-29T00:10:06.303Z,0
2017-08-29T00:11:07.298Z,0
2017-08-29T00:12:08.256Z,0
2017-08-29T00:13:02.342Z,0
2017-08-29T00:14:02.411Z,0
2017-08-29T00:14:57.434Z,0
2017-08-29T00:15:52.483Z,0
2017-08-29T00:16:52.576Z,0
2017-08-29T00:17:47.584Z,0
2017-08-29T00:18:42.549Z,0
2017-08-29T00:19:42.622Z,0
2017-08-29T00:20:37.656Z,0
2017-08-29T00:21:32.787Z,0
2017-08-29T00:22:33.682Z,0
2017-08-29T00:23:33.785Z,0
2017-08-29T00:24:33.781Z,0
2017-08-29T00:25:28.815Z,0
2017-08-29T00:26:22.798Z,0
2017-08-29T00:27:22.926Z,0
2017-08-29T00:28:17.960Z,0
2017-08-29T00:29:18.021Z,0
2017-08-29T00:30:18.114Z,0
2017-08-29T00:31:18.068Z,0
2017-08-29T00:32:18.092Z,0
2017-08-29T00:33:18.165Z,0
2017-08-29T00:34:12.193Z,0
2017-08-29T00:35:12.245Z,0
2017-08-29T00:36:07.245Z,0
2017-08-29T00:37:07.204Z,0
2017-08-29T00:38:01.349Z,0
2017-08-29T00:39:01.308Z,0
2017-08-29T00:39:56.378Z,0
2017-08-29T00:40:51.418Z,0
2017-08-29T00:41:51.546Z,0
2017-08-29T00:42:46.540Z,0
2017-08-29T00:43:41.494Z,0
2017-08-29T00:44:42.654Z,0
2017-08-29T00:45:42.525Z,0
2017-08-29T00:46:42.557Z,0
2017-08-29T00:47:37.686Z,0
2017-08-29T00:48:31.735Z,0
2017-08-29T00:49:31.733Z,0
2017-08-29T00:50:26.787Z,0
2017-08-29T00:51:26.781Z,0
2017-08-29T00:52:20.959Z,0
2017-08-29T00:53:20.951Z,0
2017-08-29T00:54:15.920Z,0
2017-08-29T00:55:10.939Z,0
2017-08-29T00:56:11.030Z,0
2017-08-29T00:57:06.023Z,0
2017-08-29T00:58:01.064Z,0
2017-08-29T00:59:07.095Z,0
2017-08-29T01:00:01.136Z,0
2017-08-29T01:01:02.124Z,0
2017-08-29T01:02:02.175Z,0
2017-08-29T01:03:02.278Z,0
2017-08-29T01:03:57.210Z,0
2017-08-29T01:04:57.230Z,0
2017-08-29T01:05:57.400Z,0
2017-08-29T01:06:57.338Z,0
2017-08-29T01:07:57.514Z,0
2017-08-29T01:08:57.401Z,0
2017-08-29T01:09:57.378Z,0
2017-08-29T01:10:57.434Z,0
2017-08-29T01:11:52.509Z,0
2017-08-29T01:12:47.580Z,0
2017-08-29T01:13:48.541Z,0
2017-08-29T01:14:48.622Z,0
2017-08-29T01:15:48.690Z,0
2017-08-29T01:16:43.720Z,0
2017-08-29T01:17:37.728Z,0
2017-08-29T01:18:37.686Z,0
2017-08-29T01:19:32.757Z,0
2017-08-29T01:20:32.779Z,0
2017-08-29T01:21:32.995Z,0
2017-08-29T01:22:32.942Z,0
2017-08-29T01:23:26.926Z,0
2017-08-29T01:24:27.011Z,0
2017-08-29T01:25:22.065Z,0
2017-08-29T01:26:21.997Z,0
2017-08-29T01:27:16.124Z,0
2017-08-29T01:28:16.159Z,0
2017-08-29T01:29:11.091Z,0
2017-08-29T01:30:06.180Z,0
2017-08-29T01:31:07.233Z,0
2017-08-29T01:32:07.200Z,0
2017-08-29T01:33:02.215Z,0
2017-08-29T01:34:02.337Z,0
2017-08-29T01:34:56.360Z,0
2017-08-29T01:35:56.361Z,0
2017-08-29T01:36:51.550Z,0
2017-08-29T01:37:51.573Z,0
2017-08-29T01:38:51.574Z,0
2017-08-29T01:39:51.619Z,0
2017-08-29T01:40:45.746Z,0
2017-08-29T01:41:45.625Z,0
2017-08-29T01:42:40.689Z,0
2017-08-29T01:43:35.747Z,0
2017-08-29T01:44:35.757Z,0
2017-08-29T01:45:30.814Z,0
2017-08-29T01:46:25.829Z,0
2017-08-29T01:47:25.844Z,0
2017-08-29T01:48:20.849Z,0
2017-08-29T01:49:16.021Z,0
2017-08-29T01:50:17.030Z,0
2017-08-29T01:51:17.969Z,0
2017-08-29T01:52:13.039Z,0
2017-08-29T01:53:07.154Z,0
2017-08-29T01:54:07.222Z,0
2017-08-29T01:55:07.214Z,0
2017-08-29T01:56:02.261Z,0
2017-08-29T01:56:56.317Z,0
2017-08-29T01:57:56.203Z,0
2017-08-29T01:58:51.307Z,0
2017-08-29T01:59:46.270Z,0
2017-08-29T02:00:47.320Z,0
2017-08-29T02:01:47.450Z,0
2017-08-29T02:02:47.437Z,0
2017-08-29T02:03:42.497Z,0
2017-08-29T02:04:36.642Z,0
2017-08-29T02:05:37.610Z,0
2017-08-29T02:06:37.612Z,0
2017-08-29T02:07:37.612Z,0
2017-08-29T02:08:32.677Z,0
2017-08-29T02:09:26.680Z,0
2017-08-29T02:10:26.690Z,0
2017-08-29T02:11:26.625Z,0
2017-08-29T02:12:26.817Z,0
2017-08-29T02:13:21.848Z,0
2017-08-29T02:14:16.800Z,0
2017-08-29T02:15:17.917Z,0
2017-08-29T02:16:17.971Z,0
2017-08-29T02:17:17.960Z,0
2017-08-29T02:18:13.086Z,0
2017-08-29T02:19:07.037Z,0
2017-08-29T02:20:07.066Z,0
2017-08-29T02:21:02.098Z,0
2017-08-29T02:22:08.227Z,0
2017-08-29T02:23:03.185Z,0
2017-08-29T02:23:57.165Z,0
2017-08-29T02:24:57.214Z,0
2017-08-29T02:25:57.245Z,0
2017-08-29T02:26:52.305Z,0
2017-08-29T02:27:46.347Z,0
2017-08-29T02:28:46.357Z,0
2017-08-29T02:29:41.414Z,0
2017-08-29T02:30:36.408Z,0
2017-08-29T02:31:42.448Z,0
2017-08-29T02:32:36.506Z,0
2017-08-29T02:33:37.501Z,0
2017-08-29T02:34:37.571Z,0
2017-08-29T02:35:37.574Z,0
2017-08-29T02:36:32.603Z,0
2017-08-29T02:37:26.966Z,0
2017-08-29T02:38:26.764Z,0
2017-08-29T02:39:21.699Z,0
2017-08-29T02:40:21.814Z,0
2017-08-29T02:41:15.790Z,0
2017-08-29T02:42:15.845Z,0
2017-08-29T02:43:15.944Z,0
2017-08-29T02:44:15.883Z,0
2017-08-29T02:45:11.016Z,0
2017-08-29T02:46:11.090Z,0
2017-08-29T02:47:05.075Z,0
2017-08-29T02:48:05.078Z,0
2017-08-29T02:49:00.254Z,0
2017-08-29T02:49:55.268Z,0
2017-08-29T02:50:55.147Z,0
2017-08-29T02:51:50.195Z,0
2017-08-29T02:52:50.293Z,0
2017-08-29T02:53:50.271Z,0
2017-08-29T02:54:50.374Z,0
2017-08-29T02:55:50.331Z,0
2017-08-29T02:56:50.414Z,0
2017-08-29T02:57:44.546Z,0
2017-08-29T02:58:45.506Z,0
2017-08-29T02:59:45.434Z,0
2017-08-29T03:00:45.538Z,0
2017-08-29T03:01:40.637Z,0
2017-08-29T03:02:34.597Z,0
2017-08-29T03:03:34.654Z,0
2017-08-29T03:04:29.764Z,0
2017-08-29T03:05:24.738Z,0
2017-08-29T03:06:25.853Z,0
2017-08-29T03:07:26.845Z,0
2017-08-29T03:08:26.878Z,0
2017-08-29T03:09:27.852Z,0
2017-08-29T03:10:28.881Z,0
2017-08-29T03:11:22.876Z,0
2017-08-29T03:12:23.950Z,0
2017-08-29T03:13:24.065Z,0
2017-08-29T03:14:18.547Z,0
2017-08-29T03:15:19.097Z,0
2017-08-29T03:16:12.611Z,0
2017-08-29T03:17:12.939Z,0
2017-08-29T03:18:07.817Z,0
2017-08-29T03:19:02.914Z,0
2017-08-29T03:20:03.174Z,0
2017-08-29T03:20:58.231Z,0
2017-08-29T03:21:57.786Z,0
2017-08-29T03:22:57.898Z,0
2017-08-29T03:23:58.588Z,0
2017-08-29T03:24:58.290Z,0
2017-08-29T03:25:58.436Z,0
2017-08-29T03:26:58.466Z,0
2017-08-29T03:28:04.368Z,0
2017-08-29T03:29:04.557Z,0
2017-08-29T03:30:04.554Z,0
2017-08-29T03:30:59.702Z,0
2017-08-29T03:32:00.635Z,0
2017-08-29T03:33:00.672Z,0
2017-08-29T03:34:00.781Z,0
2017-08-29T03:35:00.750Z,0
2017-08-29T03:36:01.739Z,0
2017-08-29T03:37:02.740Z,0
2017-08-29T03:37:56.856Z,0
2017-08-29T03:38:56.811Z,0
2017-08-29T03:39:51.923Z,0
2017-08-29T03:40:46.967Z,0
2017-08-29T03:41:47.091Z,0
2017-08-29T03:42:42.050Z,0
2017-08-29T03:43:37.131Z,0
2017-08-29T03:44:37.180Z,0
2017-08-29T03:45:32.163Z,0
2017-08-29T03:46:27.330Z,0
2017-08-29T03:47:28.163Z,0
2017-08-29T03:48:29.252Z,0
2017-08-29T03:49:24.340Z,0
2017-08-29T03:50:18.314Z,0
2017-08-29T03:51:19.394Z,0
2017-08-29T03:52:14.445Z,0
2017-08-29T03:53:08.422Z,0
2017-08-29T03:54:08.503Z,0
2017-08-29T03:55:03.535Z,0
2017-08-29T03:56:03.631Z,0
2017-08-29T03:56:57.598Z,4
2017-08-29T03:57:57.689Z,4
2017-08-29T03:58:52.631Z,0
2017-08-29T03:59:47.757Z,0
2017-08-29T04:00:47.831Z,4
2017-08-29T04:01:42.818Z,4
2017-08-29T04:02:37.886Z,4
2017-08-29T04:03:37.950Z,8
2017-08-29T04:04:32.830Z,4
2017-08-29T04:05:28.001Z,4
2017-08-29T04:06:28.981Z,8
2017-08-29T04:07:29.002Z,8
2017-08-29T04:08:28.972Z,12
2017-08-29T04:09:24.098Z,12
2017-08-29T04:10:24.008Z,16
2017-08-29T04:11:24.182Z,20
2017-08-29T04:12:18.231Z,24
2017-08-29T04:13:18.379Z,28
2017-08-29T04:14:13.254Z,32
2017-08-29T04:15:13.250Z,36
2017-08-29T04:16:13.316Z,44
2017-08-29T04:17:13.392Z,48
2017-08-29T04:18:13.330Z,56
2017-08-29T04:19:13.436Z,68
2017-08-29T04:20:07.426Z,76
2017-08-29T04:21:07.604Z,88
2017-08-29T04:22:02.547Z,100
2017-08-29T04:22:57.581Z,116
2017-08-29T04:23:57.512Z,132
2017-08-29T04:24:52.565Z,144
2017-08-29T04:25:47.752Z,164
2017-08-29T04:26:41.741Z,184
2017-08-29T04:27:47.828Z,212
2017-08-29T04:28:41.753Z,232
2017-08-29T04:29:42.807Z,260
2017-08-29T04:30:37.828Z,288
2017-08-29T04:31:37.921Z,320
2017-08-29T04:32:38.028Z,356
2017-08-29T04:33:37.855Z,388
2017-08-29T04:34:37.996Z,424
2017-08-29T04:35:37.977Z,468
2017-08-29T04:36:37.966Z,512
2017-08-29T04:37:38.180Z,556
2017-08-29T04:38:38.180Z,604
2017-08-29T04:39:38.194Z,656
2017-08-29T04:40:44.315Z,708
2017-08-29T04:41:39.232Z,760
2017-08-29T04:42:33.272Z,812
2017-08-29T04:43:33.206Z,872
2017-08-29T04:44:28.459Z,924
2017-08-29T04:45:23.253Z,980
2017-08-29T04:46:23.416Z,1048
2017-08-29T04:47:18.452Z,1112
2017-08-29T04:48:13.458Z,1180
2017-08-29T04:49:07.511Z,1240
2017-08-29T04:50:13.657Z,1324
2017-08-29T04:51:07.678Z,1392
2017-08-29T04:52:08.560Z,1468
2017-08-29T04:53:03.600Z,1544
2017-08-29T04:54:03.671Z,1624
2017-08-29T04:55:03.728Z,1708
2017-08-29T04:56:03.710Z,1800
2017-08-29T04:57:03.888Z,1892
2017-08-29T04:58:03.896Z,1984
2017-08-29T04:59:09.900Z,2092
2017-08-29T05:00:09.850Z,2188
2017-08-29T05:01:10.947Z,2288
2017-08-29T05:02:11.931Z,2388
2017-08-29T05:03:13.002Z,2492
2017-08-29T05:04:13.081Z,2588
2017-08-29T05:05:13.040Z,2688
2017-08-29T05:06:07.080Z,2784
2017-08-29T05:07:07.103Z,2900
2017-08-29T05:08:02.201Z,3024
2017-08-29T05:08:57.207Z,3136
2017-08-29T05:09:51.310Z,3252
2017-08-29T05:10:52.286Z,3412
2017-08-29T05:11:53.239Z,3548
2017-08-29T05:12:48.335Z,3672
2017-08-29T05:13:48.312Z,3808
2017-08-29T05:14:48.376Z,3952
2017-08-29T05:15:48.511Z,4092
2017-08-29T05:16:48.525Z,4236
2017-08-29T05:17:48.435Z,4384
2017-08-29T05:18:48.573Z,4528
2017-08-29T05:19:48.651Z,4676
2017-08-29T05:20:48.569Z,4820
2017-08-29T05:21:48.663Z,4956
2017-08-29T05:22:48.682Z,5076
2017-08-29T05:23:48.736Z,5204
2017-08-29T05:24:48.802Z,5320
2017-08-29T05:25:48.793Z,5456
2017-08-29T05:26:48.855Z,5600
2017-08-29T05:27:48.882Z,5736
2017-08-29T05:28:48.949Z,5884
2017-08-29T05:29:49.134Z,6032
2017-08-29T05:30:49.016Z,6196
2017-08-29T05:31:49.003Z,6384
2017-08-29T05:32:49.066Z,6684
2017-08-29T05:33:49.129Z,7064
2017-08-29T05:34:49.122Z,7784
2017-08-29T05:35:49.501Z,8380
2017-08-29T05:36:55.213Z,8624
2017-08-29T05:37:50.245Z,8772
2017-08-29T05:38:44.255Z,9032
2017-08-29T05:39:44.246Z,9332
2017-08-29T05:40:39.353Z,9592
2017-08-29T05:41:34.489Z,9844
2017-08-29T05:42:34.488Z,10184
2017-08-29T05:43:29.454Z,10392
2017-08-29T05:44:24.576Z,10400
2017-08-29T05:45:18.520Z,10100
2017-08-29T05:46:24.563Z,9900
2017-08-29T05:47:18.694Z,10220
2017-08-29T05:48:24.628Z,11556
2017-08-29T05:49:18.755Z,13572
2017-08-29T05:50:19.843Z,16640
2017-08-29T05:51:14.743Z,18752
2017-08-29T05:52:14.856Z,19072
2017-08-29T05:53:14.895Z,16416
2017-08-29T05:54:14.937Z,12256
2017-08-29T05:55:08.937Z,9568
2017-08-29T05:55:57.982Z,9760
2017-08-29T05:56:52.046Z,12256
2017-08-29T05:57:53.177Z,13376
2017-08-29T05:58:42.573Z,13376
2017-08-29T05:59:42.191Z,12404
2017-08-29T06:00:30.231Z,11544
2017-08-29T06:01:30.177Z,11856
2017-08-29T06:02:18.305Z,12324
2017-08-29T06:03:13.253Z,12784
2017-08-29T06:04:02.763Z,13120
2017-08-29T06:04:57.390Z,11756
2017-08-29T06:05:52.434Z,9920
2017-08-29T06:06:47.576Z,14208
2017-08-29T06:07:42.506Z,20768
2017-08-29T06:08:31.737Z,24576
2017-08-29T06:09:25.764Z,38144
2017-08-29T06:10:20.779Z,31328
2017-08-29T06:11:14.757Z,18208
2017-08-29T06:12:09.907Z,16736
2017-08-29T06:13:09.821Z,17664
2017-08-29T06:14:05.044Z,18112
2017-08-29T06:15:04.964Z,18656
2017-08-29T06:15:58.884Z,19008
2017-08-29T06:16:52.999Z,19520
2017-08-29T06:17:47.037Z,19968
2017-08-29T06:18:42.125Z,20288
2017-08-29T06:19:31.116Z,20256
2017-08-29T06:20:20.209Z,20160
2017-08-29T06:21:14.166Z,20064
2017-08-29T06:22:08.315Z,20192
2017-08-29T06:23:02.419Z,20512
2017-08-29T06:24:02.438Z,21024
2017-08-29T06:24:51.402Z,21504
2017-08-29T06:25:45.644Z,22016
2017-08-29T06:26:45.551Z,22528
2017-08-29T06:27:39.610Z,22976
2017-08-29T06:28:39.745Z,23264
2017-08-29T06:29:33.611Z,23680
2017-08-29T06:30:27.720Z,23968
2017-08-29T06:31:22.747Z,23776
2017-08-29T06:32:17.859Z,23072
2017-08-29T06:33:11.888Z,21952
2017-08-29T06:34:05.928Z,21376
2017-08-29T06:34:54.994Z,21696
2017-08-29T06:35:49.043Z,23136
2017-08-29T06:36:43.067Z,25216
2017-08-29T06:37:37.151Z,26848
2017-08-29T06:38:37.206Z,27552
2017-08-29T06:39:37.269Z,26848
2017-08-29T06:40:32.238Z,25824
2017-08-29T06:41:27.388Z,25536
2017-08-29T06:42:16.355Z,25888
2017-08-29T06:43:05.395Z,26432
2017-08-29T06:43:59.487Z,27744
2017-08-29T06:44:53.653Z,28896
2017-08-29T06:45:48.683Z,30368
2017-08-29T06:46:43.732Z,31328
2017-08-29T06:47:44.843Z,31584
2017-08-29T06:48:39.721Z,30400
2017-08-29T06:49:34.882Z,29120
2017-08-29T06:50:28.828Z,28480
2017-08-29T06:51:22.904Z,29024
2017-08-29T06:52:23.894Z,30752
2017-08-29T06:53:12.112Z,32064
2017-08-29T06:54:06.112Z,33632
2017-08-29T06:54:55.054Z,34016
2017-08-29T06:55:43.197Z,34208
2017-08-29T06:56:31.172Z,33440
2017-08-29T06:57:20.389Z,32096
2017-08-29T06:58:14.468Z,30656
2017-08-29T06:59:14.427Z,30240
2017-08-29T07:00:09.561Z,30688
2017-08-29T07:00:58.570Z,32192
2017-08-29T07:01:53.659Z,34304
2017-08-29T07:02:47.650Z,36512
2017-08-29T07:03:41.720Z,37216
2017-08-29T07:04:36.828Z,36800
2017-08-29T07:05:36.896Z,35872
2017-08-29T07:06:30.890Z,35040
2017-08-29T07:07:25.881Z,35072
2017-08-29T07:08:21.068Z,34848
2017-08-29T07:09:21.088Z,35200
2017-08-29T07:10:21.125Z,34624
2017-08-29T07:11:09.110Z,34496
2017-08-29T07:11:57.240Z,35040
2017-08-29T07:12:51.288Z,36576
2017-08-29T07:13:46.356Z,38432
2017-08-29T07:14:40.458Z,39648
2017-08-29T07:15:34.490Z,39968
2017-08-29T07:16:28.577Z,37984
2017-08-29T07:17:23.639Z,36096
2017-08-29T07:18:18.750Z,34240
2017-08-29T07:19:18.813Z,33600
2017-08-29T07:20:08.225Z,34880
2017-08-29T07:21:01.879Z,38592
2017-08-29T07:21:55.973Z,41760
2017-08-29T07:22:50.024Z,42720
2017-08-29T07:23:44.076Z,40928
2017-08-29T07:24:39.093Z,36928
2017-08-29T07:25:34.506Z,32512
2017-08-29T07:26:23.303Z,30016
2017-08-29T07:27:12.358Z,29728
2017-08-29T07:28:00.419Z,31392
2017-08-29T07:28:48.416Z,33888
2017-08-29T07:29:36.584Z,36096
2017-08-29T07:30:24.712Z,38112
2017-08-29T07:31:24.794Z,40256
2017-08-29T07:32:19.953Z,40704
2017-08-29T07:33:13.929Z,40096
2017-08-29T07:34:09.121Z,39808
2017-08-29T07:35:03.014Z,39424
2017-08-29T07:35:58.032Z,39104
2017-08-29T07:36:58.188Z,37920
2017-08-29T07:37:52.225Z,36896
2017-08-29T07:38:47.418Z,36480
2017-08-29T07:39:41.345Z,36960
2017-08-29T07:40:35.410Z,38336
2017-08-29T07:41:29.517Z,40096
2017-08-29T07:42:23.866Z,42880
2017-08-29T07:43:23.829Z,45152
2017-08-29T07:44:17.808Z,46528
2017-08-29T07:45:06.732Z,45952
2017-08-29T07:46:01.935Z,45088
2017-08-29T07:47:02.909Z,43584
2017-08-29T07:47:52.121Z,43232
2017-08-29T07:48:41.143Z,43968
2017-08-29T07:49:41.300Z,45536
2017-08-29T07:50:36.301Z,47616
2017-08-29T07:51:30.481Z,49728
2017-08-29T07:52:31.402Z,50464
2017-08-29T07:53:26.598Z,50400
2017-08-29T07:54:20.604Z,50304
2017-08-29T07:55:14.792Z,49344
2017-08-29T07:56:08.873Z,48000
2017-08-29T07:56:56.924Z,47232
2017-08-29T07:57:51.004Z,45440
2017-08-29T07:58:51.014Z,43840
2017-08-29T07:59:45.157Z,43424
2017-08-29T08:00:39.177Z,43776
2017-08-29T08:01:27.357Z,45984
2017-08-29T08:02:16.388Z,48384
2017-08-29T08:03:04.504Z,50208
2017-08-29T08:03:58.431Z,51264
2017-08-29T08:04:46.669Z,51392
2017-08-29T08:05:34.750Z,50528
2017-08-29T08:06:23.668Z,49984
2017-08-29T08:07:12.854Z,49280
2017-08-29T08:08:01.928Z,48960
2017-08-29T08:09:02.129Z,48608
2017-08-29T08:09:57.118Z,48576
2017-08-29T08:10:57.236Z,47968
2017-08-29T08:11:46.317Z,47584
2017-08-29T08:12:40.396Z,47552
2017-08-29T08:13:35.600Z,48032
2017-08-29T08:14:24.530Z,48896
2017-08-29T08:15:19.626Z,49184
2017-08-29T08:16:13.676Z,50496
2017-08-29T08:17:13.689Z,52192
2017-08-29T08:18:02.806Z,54144
2017-08-29T08:18:56.816Z,56864
2017-08-29T08:19:52.137Z,58400
2017-08-29T08:20:41.057Z,59584
2017-08-29T08:21:35.133Z,59488
2017-08-29T08:22:30.169Z,58016
2017-08-29T08:23:25.239Z,55200
2017-08-29T08:24:19.326Z,52896
2017-08-29T08:25:13.622Z,49984
2017-08-29T08:26:02.526Z,48128
2017-08-29T08:26:57.535Z,47328
2017-08-29T08:27:52.678Z,47456
2017-08-29T08:28:40.812Z,48384
2017-08-29T08:29:35.891Z,51392
2017-08-29T08:30:30.847Z,54592
2017-08-29T08:31:19.935Z,56384
2017-08-29T08:32:08.119Z,55584
2017-08-29T08:33:02.087Z,53280
2017-08-29T08:34:03.294Z,50112
2017-08-29T08:34:58.313Z,48736
2017-08-29T08:35:53.380Z,49984
2017-08-29T08:36:47.388Z,53344
2017-08-29T08:37:42.588Z,57728
2017-08-29T08:38:36.648Z,59744
2017-08-29T08:39:31.722Z,59712
2017-08-29T08:40:25.873Z,57440
2017-08-29T08:41:14.965Z,54432
2017-08-29T08:42:08.914Z,52672
2017-08-29T08:43:04.091Z,53344
2017-08-29T08:43:58.160Z,55360
2017-08-29T08:44:52.213Z,57984
2017-08-29T08:45:47.336Z,62272
2017-08-29T08:46:41.397Z,63776
2017-08-29T08:47:35.438Z,64928
2017-08-29T08:48:30.482Z,64832
2017-08-29T08:49:19.581Z,64160
2017-08-29T08:50:07.659Z,62112
2017-08-29T08:51:01.668Z,60288
2017-08-29T08:51:49.848Z,58688
2017-08-29T08:52:44.024Z,57568
2017-08-29T08:53:38.007Z,56768
2017-08-29T08:54:33.027Z,56736
2017-08-29T08:55:27.200Z,57792
2017-08-29T08:56:16.245Z,61280
2017-08-29T08:57:04.416Z,65664
2017-08-29T08:57:58.465Z,68480
2017-08-29T08:58:46.521Z,70336
2017-08-29T08:59:35.583Z,70208
2017-08-29T09:00:24.612Z,67904
2017-08-29T09:01:18.800Z,63968
2017-08-29T09:02:12.997Z,61728
2017-08-29T09:03:06.933Z,58912
2017-08-29T09:04:00.995Z,58400
2017-08-29T09:04:56.090Z,57440
2017-08-29T09:05:50.066Z,56608
2017-08-29T09:06:39.139Z,55744
2017-08-29T09:07:28.327Z,56640
2017-08-29T09:08:23.424Z,59584
2017-08-29T09:09:23.515Z,64224
2017-08-29T09:10:17.535Z,68800
2017-08-29T09:11:11.714Z,70976
2017-08-29T09:12:06.718Z,69248
2017-08-29T09:13:01.830Z,67584
2017-08-29T09:13:55.793Z,65696
2017-08-29T09:14:44.951Z,65696
2017-08-29T09:15:33.951Z,66720
2017-08-29T09:16:28.191Z,66720
2017-08-29T09:17:23.222Z,65632
2017-08-29T09:18:23.317Z,64640
2017-08-29T09:19:12.455Z,63648
2017-08-29T09:20:06.406Z,63296
2017-08-29T09:20:55.474Z,63296
2017-08-29T09:21:49.640Z,64064
2017-08-29T09:22:50.742Z,66176
2017-08-29T09:23:45.995Z,68768
2017-08-29T09:24:33.939Z,70304
2017-08-29T09:25:28.918Z,69728
2017-08-29T09:26:28.989Z,64576
2017-08-29T09:27:24.086Z,59520
2017-08-29T09:28:18.154Z,56288
2017-08-29T09:29:12.605Z,56288
2017-08-29T09:30:07.312Z,58976
2017-08-29T09:31:01.372Z,63168
2017-08-29T09:31:55.540Z,67264
2017-08-29T09:32:56.707Z,69728
2017-08-29T09:33:51.654Z,69792
2017-08-29T09:34:45.763Z,68640
2017-08-29T09:35:40.787Z,68224
2017-08-29T09:36:29.980Z,67520
2017-08-29T09:37:24.022Z,69696
2017-08-29T09:38:18.195Z,72320
2017-08-29T09:39:07.255Z,74400
2017-08-29T09:39:56.589Z,76256
2017-08-29T09:40:50.356Z,75424
2017-08-29T09:41:45.476Z,74752
2017-08-29T09:42:39.540Z,73632
2017-08-29T09:43:28.864Z,72928
2017-08-29T09:44:22.754Z,71264
2017-08-29T09:45:11.031Z,69120
2017-08-29T09:45:58.872Z,66624
2017-08-29T09:46:52.871Z,65024
2017-08-29T09:47:47.110Z,65312
2017-08-29T09:48:47.090Z,67232
2017-08-29T09:49:41.268Z,71008
2017-08-29T09:50:36.371Z,72704
2017-08-29T09:51:31.349Z,69760
2017-08-29T09:52:25.475Z,60672
2017-08-29T09:53:14.648Z,57376
2017-08-29T09:54:02.569Z,56352
2017-08-29T09:54:57.630Z,56320
2017-08-29T09:55:46.840Z,58752
2017-08-29T09:56:40.895Z,62240
2017-08-29T09:57:34.989Z,67456
2017-08-29T09:58:24.054Z,67680
2017-08-29T09:59:18.066Z,65536
2017-08-29T10:00:12.177Z,64096
2017-08-29T10:01:00.553Z,66656
2017-08-29T10:01:54.346Z,71552
2017-08-29T10:02:48.311Z,79552
2017-08-29T10:03:37.478Z,86528
2017-08-29T10:04:31.596Z,88192
2017-08-29T10:05:25.672Z,86592
2017-08-29T10:06:14.809Z,82400
2017-08-29T10:07:03.886Z,78336
2017-08-29T10:07:58.914Z,76896
2017-08-29T10:08:59.019Z,79744
2017-08-29T10:10:05.108Z,81536
2017-08-29T10:11:06.220Z,80128
2017-08-29T10:12:00.282Z,76384
2017-08-29T10:13:00.418Z,69728
2017-08-29T10:14:01.465Z,63424
2017-08-29T10:14:50.529Z,63328
2017-08-29T10:15:44.631Z,66560
2017-08-29T10:16:38.669Z,69696
2017-08-29T10:17:27.771Z,69472
2017-08-29T10:18:21.879Z,67904
2017-08-29T10:19:16.986Z,67488
2017-08-29T10:20:06.030Z,67392
2017-08-29T10:20:55.161Z,68000
2017-08-29T10:21:49.134Z,69632
2017-08-29T10:22:43.282Z,72480
2017-08-29T10:23:32.418Z,73152
2017-08-29T10:24:21.494Z,69440
2017-08-29T10:25:10.534Z,71040
2017-08-29T10:26:04.533Z,71936
2017-08-29T10:27:04.651Z,69952
2017-08-29T10:27:59.827Z,65952
2017-08-29T10:28:48.952Z,65472
2017-08-29T10:29:37.100Z,62112
2017-08-29T10:30:26.185Z,62560
2017-08-29T10:31:15.169Z,64800
2017-08-29T10:32:09.291Z,64928
2017-08-29T10:33:03.459Z,65056
2017-08-29T10:33:52.436Z,65536
2017-08-29T10:34:41.509Z,66368
2017-08-29T10:35:29.608Z,67008
2017-08-29T10:36:17.607Z,67488
2017-08-29T10:37:11.865Z,64256
2017-08-29T10:38:05.857Z,64736
2017-08-29T10:38:54.998Z,64352
2017-08-29T10:39:43.977Z,62336
2017-08-29T10:40:39.155Z,62880
2017-08-29T10:41:39.222Z,64256
2017-08-29T10:42:33.321Z,68736
2017-08-29T10:43:22.410Z,71648
2017-08-29T10:44:11.480Z,70400
2017-08-29T10:45:05.577Z,69376
2017-08-29T10:45:53.678Z,68320
2017-08-29T10:46:47.719Z,64576
2017-08-29T10:47:36.763Z,61056
2017-08-29T10:48:31.304Z,57280
2017-08-29T10:49:30.900Z,56704
2017-08-29T10:50:24.981Z,58976
2017-08-29T10:51:26.063Z,61568
2017-08-29T10:52:26.325Z,64448
2017-08-29T10:53:26.304Z,63648
2017-08-29T10:54:20.624Z,63168
2017-08-29T10:55:14.452Z,62496
2017-08-29T10:56:03.500Z,60128
2017-08-29T10:56:57.658Z,60928
2017-08-29T10:57:52.679Z,61280
2017-08-29T10:58:53.802Z,64512
2017-08-29T10:59:49.140Z,67296
2017-08-29T11:00:42.960Z,69728
2017-08-29T11:01:37.200Z,69760
2017-08-29T11:02:26.153Z,68288
2017-08-29T11:03:15.265Z,68480
2017-08-29T11:04:15.306Z,69504
2017-08-29T11:05:09.866Z,69536
2017-08-29T11:06:03.419Z,71040
2017-08-29T11:06:57.624Z,70432
2017-08-29T11:07:46.579Z,68992
2017-08-29T11:08:35.801Z,70496
2017-08-29T11:09:30.824Z,71040
2017-08-29T11:10:25.076Z,71616
2017-08-29T11:11:13.845Z,73376
2017-08-29T11:12:08.048Z,72320
2017-08-29T11:13:08.155Z,71264
2017-08-29T11:14:02.280Z,71040
2017-08-29T11:15:02.380Z,71072
2017-08-29T11:16:02.404Z,69760
2017-08-29T11:16:56.428Z,68128
2017-08-29T11:17:50.596Z,64512
2017-08-29T11:18:44.714Z,63968
2017-08-29T11:19:33.840Z,65536
2017-08-29T11:20:27.763Z,65056
2017-08-29T11:21:15.994Z,65120
2017-08-29T11:22:10.005Z,66304
2017-08-29T11:23:04.052Z,16652
2017-08-29T11:24:04.099Z,70720
2017-08-29T11:24:59.234Z,70752
2017-08-29T11:25:47.313Z,70144
2017-08-29T11:26:42.326Z,17300
2017-08-29T11:27:36.553Z,69280
2017-08-29T11:28:31.561Z,68384
2017-08-29T11:29:25.550Z,67712
2017-08-29T11:30:19.639Z,16664
2017-08-29T11:31:14.736Z,70144
2017-08-29T11:32:03.055Z,71616
2017-08-29T11:32:56.979Z,73824
2017-08-29T11:33:50.958Z,71168
2017-08-29T11:34:39.118Z,72256
2017-08-29T11:35:28.261Z,70944
2017-08-29T11:36:22.270Z,16272
2017-08-29T11:37:16.652Z,72576
2017-08-29T11:38:10.411Z,73120
2017-08-29T11:38:59.619Z,73408
2017-08-29T11:39:53.542Z,16300
2017-08-29T11:40:41.702Z,78656
2017-08-29T11:41:36.756Z,16124
2017-08-29T11:42:31.139Z,80576
2017-08-29T11:43:24.990Z,77280
2017-08-29T11:44:13.094Z,15820
2017-08-29T11:45:08.070Z,70464
2017-08-29T11:46:03.321Z,69504
2017-08-29T11:46:57.384Z,72736
2017-08-29T11:47:46.437Z,76192
2017-08-29T11:48:46.431Z,77504
2017-08-29T11:49:41.531Z,75616
2017-08-29T11:50:41.596Z,73888
2017-08-29T11:51:42.761Z,72320
2017-08-29T11:52:31.774Z,72384
2017-08-29T11:53:25.849Z,76192
2017-08-29T11:54:20.014Z,76576
2017-08-29T11:55:14.086Z,73344
2017-08-29T11:56:09.154Z,69440
2017-08-29T11:57:03.321Z,66560
2017-08-29T11:57:58.325Z,62464
2017-08-29T11:58:52.526Z,65920
2017-08-29T11:59:46.548Z,66688
2017-08-29T12:00:40.599Z,66656
2017-08-29T12:01:34.772Z,64064
2017-08-29T12:02:29.721Z,62976
2017-08-29T12:03:29.805Z,63680
2017-08-29T12:04:23.942Z,63520
2017-08-29T12:05:12.950Z,17020
2017-08-29T12:06:02.107Z,64608
2017-08-29T12:06:50.192Z,63168
2017-08-29T12:07:39.230Z,19408
2017-08-29T12:08:28.373Z,64608
2017-08-29T12:09:16.360Z,15772
2017-08-29T12:10:10.478Z,65952
2017-08-29T12:11:05.593Z,63872
2017-08-29T12:12:05.677Z,59104
2017-08-29T12:12:59.736Z,59616
2017-08-29T12:13:48.853Z,60576
2017-08-29T12:14:36.958Z,23712
2017-08-29T12:15:31.005Z,16100
2017-08-29T12:16:26.143Z,64320
2017-08-29T12:17:15.182Z,62944
2017-08-29T12:18:10.211Z,62112
2017-08-29T12:19:11.298Z,61056
2017-08-29T12:20:05.398Z,16988
2017-08-29T12:21:00.683Z,64896
2017-08-29T12:21:55.519Z,65344
2017-08-29T12:22:44.649Z,64800
2017-08-29T12:23:33.690Z,61728
2017-08-29T12:24:28.791Z,15592
2017-08-29T12:25:23.852Z,53600
2017-08-29T12:26:18.400Z,52896
2017-08-29T12:27:18.006Z,55648
2017-08-29T12:28:12.123Z,57888
2017-08-29T12:29:07.241Z,59136
2017-08-29T12:30:01.276Z,59328
2017-08-29T12:30:55.411Z,58432
2017-08-29T12:31:55.438Z,60064